CFG6MF LIRF-EDDF
Flight info
| Callsign | CFG6MF |
|---|---|
| Flight time | 1h 25m |
| Altitude | 36000 |
| Route | SOVAN DCT AMTEL DCT SUMIR DCT NAXAV DCT UNIMI L12 MOGTI Q163 ETASA T163 SPESA SPESA4B |
| Aircraft | A321/M-SDE3FGHIRWY/LB1 |
Departure
| Time | 2026-04-16 12:31 |
|---|---|
| Airport | Rome–Fiumicino Leonardo da Vinci International Airport (LIRF) |
Arrival
| Time | 2026-04-16 13:57 |
|---|---|
| Airport | Frankfurt Main Airport (EDDF) |
| Time | Latitude | Longitude | Altitude | Speed | Heading |
|---|---|---|---|---|---|
| 2026-04-16 12:13 | 41.80234 | 12.26154 | 15 ft | 0 kts | 25° |
| 2026-04-16 12:24 | 41.80233 | 12.26153 | 15 ft | 1 kts | 25° |
| 2026-04-16 12:24 | 41.80220 | 12.26145 | 17 ft | 3 kts | 30° |
| 2026-04-16 12:24 | 41.80203 | 12.26130 | 18 ft | 3 kts | 43° |
| 2026-04-16 12:24 | 41.80190 | 12.26111 | 18 ft | 3 kts | 64° |
| 2026-04-16 12:25 | 41.80185 | 12.26089 | 17 ft | 2 kts | 103° |
| 2026-04-16 12:25 | 41.80187 | 12.26080 | 19 ft | 0 kts | 115° |
| 2026-04-16 12:27 | 41.80172 | 12.26123 | 16 ft | 11 kts | 115° |
| 2026-04-16 12:28 | 41.80131 | 12.26242 | 16 ft | 14 kts | 115° |
| 2026-04-16 12:28 | 41.80134 | 12.26352 | 18 ft | 14 kts | 49° |
| 2026-04-16 12:28 | 41.80236 | 12.26413 | 16 ft | 16 kts | 0° |
| 2026-04-16 12:28 | 41.80345 | 12.26379 | 16 ft | 16 kts | 342° |
| 2026-04-16 12:29 | 41.80433 | 12.26427 | 15 ft | 15 kts | 66° |
| 2026-04-16 12:29 | 41.80484 | 12.26598 | 15 ft | 25 kts | 69° |
| 2026-04-16 12:29 | 41.80549 | 12.26837 | 17 ft | 27 kts | 62° |
| 2026-04-16 12:29 | 41.80614 | 12.27028 | 15 ft | 19 kts | 47° |
| 2026-04-16 12:30 | 41.80732 | 12.27056 | 11 ft | 18 kts | 1° |
| 2026-04-16 12:30 | 41.80870 | 12.27011 | 10 ft | 22 kts | 340° |
| 2026-04-16 12:30 | 41.80959 | 12.26924 | 11 ft | 6 kts | 265° |
| 2026-04-16 12:30 | 41.80940 | 12.26861 | 12 ft | 21 kts | 249° |
| 2026-04-16 12:31 | 41.80805 | 12.26362 | 18 ft | 89 kts | 249° |
| 2026-04-16 12:31 | 41.80524 | 12.25352 | 17 ft | 140 kts | 249° |
| 2026-04-16 12:31 | 41.80147 | 12.23958 | 77 ft | 173 kts | 251° |
| 2026-04-16 12:31 | 41.79752 | 12.22434 | 662 ft | 171 kts | 249° |
| 2026-04-16 12:32 | 41.79331 | 12.20967 | 1278 ft | 172 kts | 255° |
| 2026-04-16 12:32 | 41.79306 | 12.19309 | 1525 ft | 189 kts | 284° |
| 2026-04-16 12:32 | 41.79938 | 12.17677 | 1669 ft | 210 kts | 308° |
| 2026-04-16 12:32 | 41.80920 | 12.16070 | 1797 ft | 236 kts | 308° |
| 2026-04-16 12:33 | 41.81992 | 12.14280 | 2257 ft | 253 kts | 308° |
| 2026-04-16 12:33 | 41.83100 | 12.12412 | 2987 ft | 259 kts | 309° |
| 2026-04-16 12:33 | 41.84375 | 12.10699 | 3971 ft | 262 kts | 326° |
| 2026-04-16 12:33 | 41.86040 | 12.09690 | 4714 ft | 266 kts | 345° |
| 2026-04-16 12:34 | 41.87834 | 12.09035 | 5491 ft | 269 kts | 346° |
| 2026-04-16 12:34 | 41.89656 | 12.08368 | 6249 ft | 273 kts | 346° |
| 2026-04-16 12:34 | 41.91503 | 12.07691 | 7009 ft | 276 kts | 346° |
| 2026-04-16 12:34 | 41.93368 | 12.07002 | 7699 ft | 280 kts | 346° |
| 2026-04-16 12:35 | 41.95266 | 12.06305 | 8426 ft | 284 kts | 348° |
| 2026-04-16 12:35 | 41.97233 | 12.05974 | 9186 ft | 287 kts | 358° |
| 2026-04-16 12:35 | 41.99232 | 12.05782 | 9934 ft | 290 kts | 358° |
| 2026-04-16 12:35 | 42.01268 | 12.05587 | 10509 ft | 299 kts | 358° |
| 2026-04-16 12:36 | 42.03424 | 12.05381 | 10674 ft | 323 kts | 358° |
| 2026-04-16 12:36 | 42.05746 | 12.05159 | 10783 ft | 345 kts | 358° |
| 2026-04-16 12:36 | 42.08200 | 12.04921 | 11077 ft | 359 kts | 357° |
| 2026-04-16 12:36 | 42.10710 | 12.04670 | 11652 ft | 364 kts | 357° |
| 2026-04-16 12:37 | 42.13246 | 12.04414 | 12285 ft | 367 kts | 358° |
| 2026-04-16 12:37 | 42.15805 | 12.04159 | 12919 ft | 371 kts | 358° |
| 2026-04-16 12:37 | 42.18388 | 12.03878 | 13453 ft | 375 kts | 354° |
| 2026-04-16 12:37 | 42.20982 | 12.03314 | 14078 ft | 379 kts | 352° |
| 2026-04-16 12:38 | 42.23553 | 12.02735 | 14649 ft | 381 kts | 352° |
| 2026-04-16 12:38 | 42.26176 | 12.02144 | 15243 ft | 383 kts | 352° |
| 2026-04-16 12:38 | 42.28816 | 12.01553 | 15822 ft | 386 kts | 352° |
| 2026-04-16 12:38 | 42.31473 | 12.00955 | 16388 ft | 388 kts | 352° |
| 2026-04-16 12:39 | 42.34148 | 12.00353 | 16964 ft | 391 kts | 352° |
| 2026-04-16 12:39 | 42.36838 | 11.99747 | 17529 ft | 393 kts | 352° |
| 2026-04-16 12:39 | 42.39573 | 11.99131 | 18090 ft | 395 kts | 352° |
| 2026-04-16 12:39 | 42.42259 | 11.98525 | 18590 ft | 398 kts | 351° |
| 2026-04-16 12:40 | 42.44998 | 11.97907 | 19042 ft | 400 kts | 351° |
| 2026-04-16 12:40 | 42.47750 | 11.97283 | 19501 ft | 403 kts | 351° |
| 2026-04-16 12:40 | 42.50524 | 11.96653 | 19933 ft | 406 kts | 351° |
| 2026-04-16 12:40 | 42.53314 | 11.96022 | 20357 ft | 408 kts | 351° |
| 2026-04-16 12:41 | 42.56129 | 11.95387 | 20789 ft | 411 kts | 351° |
| 2026-04-16 12:41 | 42.58961 | 11.94750 | 21219 ft | 414 kts | 351° |
| 2026-04-16 12:41 | 42.61815 | 11.94108 | 21641 ft | 417 kts | 351° |
| 2026-04-16 12:41 | 42.64688 | 11.93457 | 22074 ft | 420 kts | 351° |
| 2026-04-16 12:42 | 42.67575 | 11.92798 | 22499 ft | 423 kts | 351° |
| 2026-04-16 12:42 | 42.70486 | 11.92133 | 22925 ft | 425 kts | 351° |
| 2026-04-16 12:42 | 42.73419 | 11.91466 | 23345 ft | 428 kts | 351° |
| 2026-04-16 12:42 | 42.76372 | 11.90793 | 23747 ft | 431 kts | 351° |
| 2026-04-16 12:43 | 42.79339 | 11.90114 | 24134 ft | 432 kts | 351° |
| 2026-04-16 12:43 | 42.82285 | 11.89313 | 24523 ft | 433 kts | 345° |
| 2026-04-16 12:43 | 42.85125 | 11.87913 | 24922 ft | 435 kts | 336° |
| 2026-04-16 12:43 | 42.87806 | 11.86007 | 25317 ft | 436 kts | 333° |
| 2026-04-16 12:44 | 42.90478 | 11.84044 | 25707 ft | 436 kts | 333° |
| 2026-04-16 12:44 | 42.93155 | 11.82082 | 26066 ft | 438 kts | 333° |
| 2026-04-16 12:44 | 42.95843 | 11.80117 | 26420 ft | 439 kts | 333° |
| 2026-04-16 12:44 | 42.98511 | 11.78170 | 26752 ft | 441 kts | 333° |
| 2026-04-16 12:45 | 43.01223 | 11.76191 | 27057 ft | 442 kts | 333° |
| 2026-04-16 12:45 | 43.03940 | 11.74205 | 27382 ft | 444 kts | 333° |
| 2026-04-16 12:45 | 43.06670 | 11.72202 | 27693 ft | 446 kts | 333° |
| 2026-04-16 12:45 | 43.09404 | 11.70193 | 28020 ft | 447 kts | 333° |
| 2026-04-16 12:46 | 43.12191 | 11.68142 | 28351 ft | 449 kts | 333° |
| 2026-04-16 12:46 | 43.14943 | 11.66116 | 28677 ft | 450 kts | 333° |
| 2026-04-16 12:46 | 43.17668 | 11.64103 | 28998 ft | 451 kts | 333° |
| 2026-04-16 12:46 | 43.20493 | 11.62261 | 29424 ft | 447 kts | 341° |
| 2026-04-16 12:47 | 43.23460 | 11.61049 | 29857 ft | 444 kts | 349° |
| 2026-04-16 12:47 | 43.26517 | 11.60501 | 30243 ft | 441 kts | 358° |
| 2026-04-16 12:47 | 43.29583 | 11.60281 | 30572 ft | 441 kts | 358° |
| 2026-04-16 12:47 | 43.32639 | 11.60051 | 30883 ft | 441 kts | 358° |
| 2026-04-16 12:48 | 43.35702 | 11.59813 | 31199 ft | 440 kts | 357° |
| 2026-04-16 12:48 | 43.38763 | 11.59572 | 31516 ft | 440 kts | 357° |
| 2026-04-16 12:48 | 43.41826 | 11.59329 | 31836 ft | 440 kts | 357° |
| 2026-04-16 12:48 | 43.44885 | 11.59082 | 32146 ft | 440 kts | 357° |
| 2026-04-16 12:49 | 43.47947 | 11.58833 | 32470 ft | 440 kts | 357° |
| 2026-04-16 12:49 | 43.51004 | 11.58589 | 32796 ft | 440 kts | 357° |
| 2026-04-16 12:49 | 43.54057 | 11.58348 | 33108 ft | 440 kts | 357° |
| 2026-04-16 12:49 | 43.57117 | 11.58109 | 33424 ft | 440 kts | 357° |
| 2026-04-16 12:50 | 43.60181 | 11.57872 | 33736 ft | 440 kts | 357° |
| 2026-04-16 12:50 | 43.63231 | 11.57635 | 34050 ft | 440 kts | 357° |
| 2026-04-16 12:50 | 43.66290 | 11.57395 | 34319 ft | 440 kts | 357° |
| 2026-04-16 12:50 | 43.69344 | 11.57155 | 34584 ft | 439 kts | 357° |
| 2026-04-16 12:51 | 43.72393 | 11.56917 | 34830 ft | 439 kts | 357° |
| 2026-04-16 12:51 | 43.75445 | 11.56676 | 35092 ft | 439 kts | 357° |
| 2026-04-16 12:51 | 43.78491 | 11.56434 | 35355 ft | 439 kts | 357° |
| 2026-04-16 12:51 | 43.81541 | 11.56191 | 35617 ft | 438 kts | 356° |
| 2026-04-16 12:52 | 43.84585 | 11.55949 | 35885 ft | 438 kts | 356° |
| 2026-04-16 12:52 | 43.87635 | 11.55704 | 36080 ft | 438 kts | 356° |
| 2026-04-16 12:52 | 43.93693 | 11.55218 | 36133 ft | 435 kts | 356° |
| 2026-04-16 12:53 | 43.99733 | 11.54738 | 36143 ft | 435 kts | 356° |
| 2026-04-16 12:53 | 44.05781 | 11.54258 | 36159 ft | 436 kts | 356° |
| 2026-04-16 12:54 | 44.11790 | 11.53776 | 36178 ft | 437 kts | 356° |
| 2026-04-16 12:54 | 44.17865 | 11.53290 | 36195 ft | 437 kts | 356° |
| 2026-04-16 12:55 | 44.23948 | 11.52804 | 36194 ft | 438 kts | 356° |
| 2026-04-16 12:55 | 44.30048 | 11.52312 | 36194 ft | 439 kts | 355° |
| 2026-04-16 12:56 | 44.36161 | 11.51821 | 36185 ft | 440 kts | 355° |
| 2026-04-16 12:56 | 44.42281 | 11.51330 | 36162 ft | 441 kts | 355° |
| 2026-04-16 12:57 | 44.48409 | 11.50827 | 36157 ft | 442 kts | 355° |
| 2026-04-16 12:57 | 44.54547 | 11.50321 | 36161 ft | 442 kts | 355° |
| 2026-04-16 12:58 | 44.60697 | 11.49818 | 36176 ft | 443 kts | 355° |
| 2026-04-16 12:58 | 44.66821 | 11.49323 | 36177 ft | 443 kts | 355° |
| 2026-04-16 12:59 | 44.72989 | 11.48823 | 36187 ft | 444 kts | 355° |
| 2026-04-16 13:00 | 44.82253 | 11.48069 | 36208 ft | 445 kts | 355° |
| 2026-04-16 13:00 | 44.88427 | 11.47561 | 36207 ft | 445 kts | 355° |
| 2026-04-16 13:01 | 44.94617 | 11.47052 | 36210 ft | 445 kts | 355° |
| 2026-04-16 13:01 | 45.00801 | 11.46541 | 36199 ft | 445 kts | 354° |
| 2026-04-16 13:02 | 45.06988 | 11.46030 | 36194 ft | 445 kts | 354° |
| 2026-04-16 13:02 | 45.13183 | 11.45523 | 36188 ft | 446 kts | 354° |
| 2026-04-16 13:03 | 45.19374 | 11.44998 | 36185 ft | 446 kts | 354° |
| 2026-04-16 13:03 | 45.25571 | 11.44480 | 36185 ft | 446 kts | 354° |
| 2026-04-16 13:04 | 45.31723 | 11.43972 | 36177 ft | 446 kts | 354° |
| 2026-04-16 13:04 | 45.37918 | 11.43456 | 36173 ft | 446 kts | 354° |
| 2026-04-16 13:05 | 45.44120 | 11.42931 | 36169 ft | 446 kts | 354° |
| 2026-04-16 13:05 | 45.50320 | 11.42405 | 36160 ft | 446 kts | 354° |
| 2026-04-16 13:06 | 45.56516 | 11.41890 | 36156 ft | 446 kts | 354° |
| 2026-04-16 13:06 | 45.61670 | 11.41453 | 36156 ft | 446 kts | 354° |
| 2026-04-16 13:07 | 45.67869 | 11.40932 | 36150 ft | 446 kts | 354° |
| 2026-04-16 13:07 | 45.74065 | 11.40414 | 36160 ft | 446 kts | 354° |
| 2026-04-16 13:08 | 45.80258 | 11.39884 | 36153 ft | 446 kts | 354° |
| 2026-04-16 13:08 | 45.86459 | 11.39355 | 36149 ft | 446 kts | 354° |
| 2026-04-16 13:09 | 45.92651 | 11.38819 | 36155 ft | 446 kts | 354° |
| 2026-04-16 13:09 | 45.98849 | 11.38286 | 36150 ft | 446 kts | 354° |
| 2026-04-16 13:10 | 46.05041 | 11.37765 | 36164 ft | 445 kts | 354° |
| 2026-04-16 13:10 | 46.11181 | 11.37233 | 36193 ft | 445 kts | 354° |
| 2026-04-16 13:11 | 46.17363 | 11.36694 | 36209 ft | 445 kts | 354° |
| 2026-04-16 13:11 | 46.23544 | 11.36171 | 36233 ft | 444 kts | 354° |
| 2026-04-16 13:12 | 46.29699 | 11.35478 | 36243 ft | 443 kts | 351° |
| 2026-04-16 13:12 | 46.32759 | 11.34934 | 36097 ft | 442 kts | 349° |
| 2026-04-16 13:12 | 46.35803 | 11.34317 | 36094 ft | 442 kts | 349° |
| 2026-04-16 13:13 | 46.41886 | 11.33059 | 36098 ft | 442 kts | 349° |
| 2026-04-16 13:13 | 46.47854 | 11.31204 | 36096 ft | 436 kts | 336° |
| 2026-04-16 13:14 | 46.53406 | 11.27716 | 36098 ft | 434 kts | 333° |
| 2026-04-16 13:14 | 46.58932 | 11.24153 | 36106 ft | 434 kts | 333° |
| 2026-04-16 13:15 | 46.64450 | 11.20588 | 36120 ft | 434 kts | 333° |
| 2026-04-16 13:15 | 46.69935 | 11.17036 | 36140 ft | 434 kts | 333° |
| 2026-04-16 13:16 | 46.75453 | 11.13447 | 36164 ft | 434 kts | 333° |
| 2026-04-16 13:16 | 46.80957 | 11.09870 | 36184 ft | 433 kts | 333° |
| 2026-04-16 13:17 | 46.86462 | 11.06286 | 36202 ft | 433 kts | 333° |
| 2026-04-16 13:17 | 46.91946 | 11.02640 | 36212 ft | 432 kts | 333° |
| 2026-04-16 13:18 | 46.97381 | 10.98986 | 36213 ft | 431 kts | 333° |
| 2026-04-16 13:18 | 47.02883 | 10.95378 | 36229 ft | 431 kts | 334° |
| 2026-04-16 13:19 | 47.08366 | 10.91822 | 36234 ft | 430 kts | 334° |
| 2026-04-16 13:19 | 47.13827 | 10.88247 | 36234 ft | 429 kts | 334° |
| 2026-04-16 13:20 | 47.19250 | 10.84666 | 36249 ft | 429 kts | 334° |
| 2026-04-16 13:20 | 47.24694 | 10.81078 | 36259 ft | 429 kts | 334° |
| 2026-04-16 13:21 | 47.30129 | 10.77499 | 36256 ft | 427 kts | 334° |
| 2026-04-16 13:21 | 47.35556 | 10.73910 | 36265 ft | 427 kts | 334° |
| 2026-04-16 13:22 | 47.40981 | 10.70354 | 36264 ft | 427 kts | 335° |
| 2026-04-16 13:22 | 47.46493 | 10.67114 | 36276 ft | 426 kts | 337° |
| 2026-04-16 13:23 | 47.52034 | 10.63994 | 36276 ft | 426 kts | 337° |
| 2026-04-16 13:23 | 47.57551 | 10.60830 | 36278 ft | 424 kts | 336° |
| 2026-04-16 13:24 | 47.63032 | 10.57612 | 36279 ft | 423 kts | 336° |
| 2026-04-16 13:24 | 47.68464 | 10.54396 | 36285 ft | 422 kts | 336° |
| 2026-04-16 13:25 | 47.73923 | 10.51176 | 36293 ft | 422 kts | 336° |
| 2026-04-16 13:25 | 47.79378 | 10.47949 | 36287 ft | 421 kts | 336° |
| 2026-04-16 13:26 | 47.84813 | 10.44722 | 36289 ft | 420 kts | 336° |
| 2026-04-16 13:26 | 47.90246 | 10.41490 | 36290 ft | 420 kts | 336° |
| 2026-04-16 13:27 | 47.95666 | 10.38270 | 36294 ft | 419 kts | 336° |
| 2026-04-16 13:27 | 48.01078 | 10.35045 | 36295 ft | 418 kts | 336° |
| 2026-04-16 13:28 | 48.06484 | 10.31816 | 36292 ft | 418 kts | 336° |
| 2026-04-16 13:28 | 48.11883 | 10.28589 | 36292 ft | 418 kts | 335° |
| 2026-04-16 13:29 | 48.17250 | 10.25363 | 36286 ft | 418 kts | 335° |
| 2026-04-16 13:29 | 48.22353 | 10.21348 | 36284 ft | 413 kts | 321° |
| 2026-04-16 13:30 | 48.26814 | 10.15947 | 36283 ft | 412 kts | 319° |
| 2026-04-16 13:30 | 48.31276 | 10.10538 | 36282 ft | 412 kts | 319° |
| 2026-04-16 13:31 | 48.35735 | 10.05131 | 36283 ft | 412 kts | 319° |
| 2026-04-16 13:31 | 48.40193 | 9.99714 | 36283 ft | 411 kts | 319° |
| 2026-04-16 13:32 | 48.44638 | 9.94287 | 36268 ft | 411 kts | 319° |
| 2026-04-16 13:32 | 48.49068 | 9.88858 | 36268 ft | 410 kts | 319° |
| 2026-04-16 13:33 | 48.53489 | 9.83427 | 36264 ft | 410 kts | 319° |
| 2026-04-16 13:33 | 48.57907 | 9.77989 | 36264 ft | 409 kts | 319° |
| 2026-04-16 13:34 | 48.62300 | 9.72519 | 36258 ft | 409 kts | 317° |
| 2026-04-16 13:34 | 48.66592 | 9.66885 | 36252 ft | 408 kts | 317° |
| 2026-04-16 13:35 | 48.70813 | 9.61239 | 36247 ft | 408 kts | 316° |
| 2026-04-16 13:35 | 48.75074 | 9.55556 | 36241 ft | 408 kts | 317° |
| 2026-04-16 13:36 | 48.79343 | 9.49902 | 36241 ft | 408 kts | 317° |
| 2026-04-16 13:36 | 48.83620 | 9.44247 | 36242 ft | 407 kts | 317° |
| 2026-04-16 13:37 | 48.87505 | 9.39084 | 36239 ft | 407 kts | 316° |
| 2026-04-16 13:37 | 48.91905 | 9.33672 | 36227 ft | 409 kts | 326° |
| 2026-04-16 13:38 | 48.96990 | 9.29709 | 36231 ft | 411 kts | 330° |
| 2026-04-16 13:38 | 48.99553 | 9.27768 | 36107 ft | 412 kts | 330° |
| 2026-04-16 13:38 | 49.02122 | 9.25814 | 35519 ft | 414 kts | 330° |
| 2026-04-16 13:38 | 49.04697 | 9.23852 | 34884 ft | 414 kts | 330° |
| 2026-04-16 13:39 | 49.07270 | 9.21885 | 34261 ft | 414 kts | 330° |
| 2026-04-16 13:39 | 49.09847 | 9.19911 | 33547 ft | 414 kts | 330° |
| 2026-04-16 13:39 | 49.12414 | 9.17942 | 32852 ft | 415 kts | 330° |
| 2026-04-16 13:39 | 49.15005 | 9.15963 | 32166 ft | 417 kts | 330° |
| 2026-04-16 13:40 | 49.17735 | 9.14330 | 31507 ft | 425 kts | 340° |
| 2026-04-16 13:40 | 49.20663 | 9.13480 | 30847 ft | 435 kts | 351° |
| 2026-04-16 13:40 | 49.23679 | 9.13480 | 30210 ft | 442 kts | 0° |
| 2026-04-16 13:40 | 49.26774 | 9.13931 | 29460 ft | 441 kts | 1° |
| 2026-04-16 13:41 | 49.29824 | 9.14377 | 28746 ft | 439 kts | 1° |
| 2026-04-16 13:41 | 49.32821 | 9.14812 | 28057 ft | 437 kts | 1° |
| 2026-04-16 13:41 | 49.35838 | 9.15245 | 27364 ft | 431 kts | 0° |
| 2026-04-16 13:41 | 49.38764 | 9.15667 | 26688 ft | 412 kts | 0° |
| 2026-04-16 13:42 | 49.41554 | 9.16070 | 26040 ft | 395 kts | 0° |
| 2026-04-16 13:42 | 49.44239 | 9.16455 | 25407 ft | 380 kts | 0° |
| 2026-04-16 13:42 | 49.46826 | 9.16825 | 24787 ft | 367 kts | 360° |
| 2026-04-16 13:42 | 49.49327 | 9.17183 | 24176 ft | 357 kts | 360° |
| 2026-04-16 13:43 | 49.51816 | 9.17532 | 23544 ft | 361 kts | 360° |
| 2026-04-16 13:43 | 49.54335 | 9.17883 | 22844 ft | 365 kts | 0° |
| 2026-04-16 13:43 | 49.56873 | 9.18239 | 22154 ft | 368 kts | 0° |
| 2026-04-16 13:43 | 49.59416 | 9.18603 | 21460 ft | 362 kts | 1° |
| 2026-04-16 13:44 | 49.61878 | 9.18996 | 20800 ft | 350 kts | 5° |
| 2026-04-16 13:44 | 49.64225 | 9.19889 | 20158 ft | 345 kts | 15° |
| 2026-04-16 13:44 | 49.66417 | 9.21428 | 19535 ft | 352 kts | 26° |
| 2026-04-16 13:44 | 49.68442 | 9.23639 | 18913 ft | 363 kts | 38° |
| 2026-04-16 13:45 | 49.70252 | 9.26416 | 18253 ft | 369 kts | 41° |
| 2026-04-16 13:45 | 49.72237 | 9.28927 | 17570 ft | 367 kts | 30° |
| 2026-04-16 13:45 | 49.74431 | 9.30764 | 16881 ft | 349 kts | 18° |
| 2026-04-16 13:45 | 49.76704 | 9.31786 | 16216 ft | 333 kts | 8° |
| 2026-04-16 13:46 | 49.78937 | 9.32538 | 15559 ft | 323 kts | 8° |
| 2026-04-16 13:46 | 49.81108 | 9.33238 | 14924 ft | 315 kts | 8° |
| 2026-04-16 13:46 | 49.83232 | 9.33835 | 14302 ft | 305 kts | 0° |
| 2026-04-16 13:46 | 49.85285 | 9.33651 | 13640 ft | 296 kts | 344° |
| 2026-04-16 13:47 | 49.87192 | 9.32587 | 12961 ft | 289 kts | 328° |
| 2026-04-16 13:47 | 49.88821 | 9.30767 | 12296 ft | 293 kts | 314° |
| 2026-04-16 13:47 | 49.90265 | 9.28503 | 11762 ft | 296 kts | 313° |
| 2026-04-16 13:47 | 49.91713 | 9.26234 | 11355 ft | 295 kts | 313° |
| 2026-04-16 13:48 | 49.93158 | 9.23975 | 10955 ft | 295 kts | 313° |
| 2026-04-16 13:48 | 49.94601 | 9.21723 | 10576 ft | 294 kts | 313° |
| 2026-04-16 13:48 | 49.96034 | 9.19482 | 10171 ft | 287 kts | 313° |
| 2026-04-16 13:48 | 49.97409 | 9.17333 | 9725 ft | 272 kts | 313° |
| 2026-04-16 13:49 | 49.98710 | 9.15299 | 9319 ft | 259 kts | 313° |
| 2026-04-16 13:49 | 49.99951 | 9.13351 | 8887 ft | 248 kts | 313° |
| 2026-04-16 13:49 | 50.01166 | 9.11436 | 8484 ft | 250 kts | 313° |
| 2026-04-16 13:49 | 50.02392 | 9.09499 | 8072 ft | 252 kts | 313° |
| 2026-04-16 13:50 | 50.03625 | 9.07553 | 7566 ft | 250 kts | 313° |
| 2026-04-16 13:50 | 50.04823 | 9.05662 | 7104 ft | 242 kts | 313° |
| 2026-04-16 13:50 | 50.05991 | 9.03816 | 6639 ft | 237 kts | 313° |
| 2026-04-16 13:50 | 50.07137 | 9.02002 | 6146 ft | 235 kts | 313° |
| 2026-04-16 13:51 | 50.08259 | 9.00231 | 5672 ft | 233 kts | 313° |
| 2026-04-16 13:51 | 50.09397 | 8.98432 | 5196 ft | 233 kts | 313° |
| 2026-04-16 13:51 | 50.10545 | 8.96615 | 4797 ft | 236 kts | 313° |
| 2026-04-16 13:51 | 50.11540 | 8.94591 | 4401 ft | 237 kts | 292° |
| 2026-04-16 13:52 | 50.11809 | 8.92093 | 4050 ft | 235 kts | 262° |
| 2026-04-16 13:52 | 50.11378 | 8.89699 | 4007 ft | 227 kts | 249° |
| 2026-04-16 13:52 | 50.10819 | 8.87415 | 4000 ft | 221 kts | 249° |
| 2026-04-16 13:52 | 50.10291 | 8.85216 | 3875 ft | 213 kts | 250° |
| 2026-04-16 13:53 | 50.09787 | 8.83080 | 3636 ft | 208 kts | 250° |
| 2026-04-16 13:53 | 50.09291 | 8.80977 | 3382 ft | 205 kts | 250° |
| 2026-04-16 13:53 | 50.08806 | 8.78919 | 3111 ft | 199 kts | 250° |
| 2026-04-16 13:53 | 50.08340 | 8.76944 | 2847 ft | 191 kts | 250° |
| 2026-04-16 13:54 | 50.07897 | 8.75068 | 2595 ft | 176 kts | 250° |
| 2026-04-16 13:54 | 50.07503 | 8.73402 | 2368 ft | 154 kts | 250° |
| 2026-04-16 13:54 | 50.07145 | 8.71889 | 2165 ft | 146 kts | 249° |
| 2026-04-16 13:54 | 50.06850 | 8.70404 | 1998 ft | 142 kts | 260° |
| 2026-04-16 13:55 | 50.06746 | 8.68876 | 1896 ft | 142 kts | 262° |
| 2026-04-16 13:55 | 50.06549 | 8.67374 | 1783 ft | 141 kts | 255° |
| 2026-04-16 13:55 | 50.06264 | 8.65909 | 1663 ft | 142 kts | 251° |
| 2026-04-16 13:55 | 50.05906 | 8.64486 | 1512 ft | 141 kts | 248° |
| 2026-04-16 13:56 | 50.05659 | 8.63546 | 1369 ft | 141 kts | 248° |
| 2026-04-16 13:56 | 50.05306 | 8.62122 | 1087 ft | 141 kts | 250° |
| 2026-04-16 13:56 | 50.04993 | 8.60684 | 759 ft | 140 kts | 250° |
| 2026-04-16 13:56 | 50.04651 | 8.59272 | 510 ft | 140 kts | 246° |
| 2026-04-16 13:57 | 50.04312 | 8.57867 | 370 ft | 131 kts | 250° |
| 2026-04-16 13:57 | 50.04092 | 8.56930 | 363 ft | 51 kts | 250° |
| 2026-04-16 13:57 | 50.03986 | 8.56456 | 353 ft | 46 kts | 263° |
| 2026-04-16 13:58 | 50.04027 | 8.56124 | 358 ft | 9 kts | 301° |
| 2026-04-16 13:58 | 50.04079 | 8.56136 | 351 ft | 12 kts | 31° |
| 2026-04-16 13:58 | 50.04124 | 8.56264 | 356 ft | 14 kts | 68° |
| 2026-04-16 13:58 | 50.04155 | 8.56392 | 360 ft | 12 kts | 70° |
| 2026-04-16 13:59 | 50.04181 | 8.56501 | 357 ft | 10 kts | 70° |
| 2026-04-16 13:59 | 50.04215 | 8.56646 | 360 ft | 19 kts | 69° |
| 2026-04-16 13:59 | 50.04268 | 8.56796 | 361 ft | 14 kts | 33° |
| 2026-04-16 13:59 | 50.04354 | 8.56829 | 360 ft | 12 kts | 11° |
| 2026-04-16 14:00 | 50.04436 | 8.56850 | 366 ft | 12 kts | 9° |
| 2026-04-16 14:00 | 50.04514 | 8.56875 | 359 ft | 11 kts | 13° |
| 2026-04-16 14:00 | 50.04587 | 8.56904 | 363 ft | 12 kts | 14° |
| 2026-04-16 14:00 | 50.04631 | 8.56890 | 358 ft | 4 kts | 292° |
| 2026-04-16 14:01 | 50.04642 | 8.56853 | 356 ft | 3 kts | 295° |
| 2026-04-16 14:01 | 50.04650 | 8.56827 | 362 ft | 2 kts | 295° |
| 2026-04-16 14:01 | 50.04654 | 8.56813 | 361 ft | 1 kts | 295° |
| 2026-04-16 14:01 | 50.04655 | 8.56810 | 361 ft | 0 kts | 295° |